Latest Weather Observations for Davis (Whoop Whoop)*

IDT60801

Issued at 4:02 pm EDT Saturday 28 March 2015 (issued every 30 minutes, with the page automatically refreshed every 10 minutes)

About weather observations | Map of weather stations | Latest weather observations for ANT | Other Formats
Station Details ID: 300055 Name: DAVIS (WHOOP WHOOP) Lat: -68.47 Lon: 78.87 Height: 545.0 m
Data from the previous 72 hours. | See also: Recent months for locations in Antarctica
Date/Time
EDT
Temp
°C
App
Temp
°C
Dew
Point
Rel
Hum
%
Delta-T
°C
Wind Press
QNH
hPa
Press
MSL
hPa
Rain
since 9 am
mm
Dir
 
Spd
km/h
Gust
km/h
Spd
kts
Gust
kts
28/03:30pm -20.1 -28.0 -26.6 56 - E 22 28 12 15 971.6 - -
28/03:00pm -20.8 -29.1 -27.0 57 - E 24 28 13 15 971.5 - -
28/02:30pm -21.5 -31.0 -27.5 58 - E 30 32 16 17 971.2 - -
28/02:00pm -22.2 -31.7 -28.2 58 - E 30 33 16 18 971.1 - -
28/01:30pm -22.4 -31.9 -28.2 59 - E 30 35 16 19 971.0 - -
28/01:00pm -23.0 -32.9 -28.8 59 - E 32 35 17 19 971.0 - -
28/12:30pm -23.3 -33.2 -29.0 59 - E 32 35 17 19 971.1 - -
28/12:00pm -23.5 -33.4 -28.9 61 - E 32 35 17 19 971.2 - -
28/11:30am -23.5 -33.4 -28.9 61 - E 32 35 17 19 971.2 - -
28/10:30am -23.4 -33.3 -29.0 60 - E 32 35 17 19 971.0 - -
28/10:00am -23.2 -32.7 -28.9 60 - E 30 33 16 18 971.0 - -
28/09:30am -23.3 -33.2 -28.9 60 - E 32 35 17 19 970.9 - -
28/09:00am -23.5 -34.0 -29.0 61 - E 35 41 19 22 970.5 - -
28/08:30am -23.1 -33.6 -28.7 60 - E 35 41 19 22 970.5 - -
28/08:00am -23.2 -34.0 -28.8 60 - E 37 43 20 23 970.3 - -
28/07:30am -23.0 -33.8 -28.6 60 - E 37 43 20 23 970.4 - -
28/07:00am -23.1 -34.3 -28.5 61 - E 39 44 21 24 970.5 - -
28/06:30am -23.1 -33.9 -28.5 61 - E 37 43 20 23 970.4 - -
28/06:00am -22.9 -33.7 -28.3 61 - E 37 43 20 23 970.3 - -
28/05:30am -22.8 -34.4 -28.2 61 - E 41 46 22 25 970.2 - -
28/04:30am -22.7 -34.7 -28.3 60 - E 43 48 23 26 970.0 - -
28/04:00am -22.5 -34.7 -28.3 59 - E 44 56 24 30 969.9 - -
28/03:30am -22.6 -34.6 -28.2 60 - E 43 50 23 27 969.7 - -
28/03:00am -22.7 -34.3 -28.1 61 - E 41 46 22 25 969.8 - -
28/02:30am -22.7 -34.7 -28.5 59 - E 43 50 23 27 969.8 - -
28/02:00am -22.5 -33.7 -28.1 60 - E 39 46 21 25 969.8 - -
28/01:30am -22.2 -33.8 -27.8 60 - E 41 46 22 25 969.9 - -
28/01:00am -22.1 -33.3 -27.7 60 - E 39 46 21 25 969.9 - -
28/12:30am -21.7 -33.3 -27.3 60 - E 41 48 22 26 969.7 - -
28/12:00am -21.7 -32.9 -27.2 61 - E 39 48 21 26 969.8 - -
 
Date/Time
EDT
Temp
°C
App
Temp
°C
Dew
Point
Rel
Hum
%
Delta-T
°C
Wind Press
QNH
hPa
Press
MSL
hPa
Rain
since 9 am
mm
Dir
 
Spd
km/h
Gust
km/h
Spd
kts
Gust
kts
27/11:30pm -21.3 -32.5 -26.8 61 - E 39 48 21 26 969.8 - -
27/11:00pm -21.0 -31.8 -26.3 62 - E 37 44 20 24 969.8 - -
27/10:30pm -20.3 -30.7 -26.0 60 - E 35 50 19 27 969.7 - -
27/10:00pm -19.9 -30.3 -25.6 60 - E 35 44 19 24 969.6 - -
27/09:30pm -19.1 -29.5 -25.8 55 - E 35 46 19 25 969.6 - -
27/09:10pm -19.0 -28.8 -25.7 55 - E 32 52 17 28 969.3 - -
27/09:00pm -19.0 -28.8 -25.5 56 - E 32 41 17 22 969.5 - -
27/08:30pm -18.4 -28.8 -25.4 54 - E 35 46 19 25 969.4 - -
27/08:00pm -18.8 -29.6 -25.0 58 - E 37 44 20 24 969.0 - -
27/07:30pm -18.5 -28.5 -24.5 59 - E 33 41 18 22 968.8 - -
27/07:00pm -18.4 -29.5 -24.2 60 - E 39 46 21 25 968.5 - -
27/06:30pm -18.6 -30.1 -24.4 60 - E 41 48 22 26 968.5 - -
27/06:00pm -18.8 -30.3 -25.0 58 - E 41 56 22 30 968.4 - -
27/05:30pm -19.0 -30.5 -24.8 60 - E 41 48 22 26 968.2 - -
27/05:00pm -18.9 -29.7 -24.9 59 - E 37 48 20 26 968.2 - -
27/04:30pm -19.1 -29.9 -25.3 58 - E 37 52 20 28 968.1 - -
27/04:00pm -19.3 -30.5 -25.4 58 - E 39 48 21 26 967.9 - -
27/03:30pm -19.3 -30.1 -25.6 57 - E 37 52 20 28 967.9 - -
27/03:00pm -19.7 -31.2 -25.6 59 - E 41 50 22 27 967.3 - -
27/02:30pm -19.8 -31.9 -25.5 60 - E 44 57 24 31 967.3 - -
27/02:00pm -19.8 -31.9 -25.4 61 - E 44 54 24 29 967.2 - -
27/01:30pm -20.0 -31.9 -26.1 58 - E 43 54 23 29 966.9 - -
27/01:00pm -19.9 -31.8 -25.8 59 - E 43 57 23 31 966.6 - -
27/12:39pm -20.0 -31.9 -25.7 60 - E 43 61 23 33 966.3 - -
27/12:30pm -20.2 -32.7 -25.9 60 - E 46 56 25 30 966.2 - -
27/12:00pm -20.2 -32.3 -25.4 63 - E 44 54 24 29 966.1 - -
27/11:30am -20.0 -32.1 -25.0 64 - E 44 54 24 29 965.8 - -
27/11:00am -19.6 -31.5 -25.2 61 - E 43 57 23 31 965.8 - -
27/10:30am -19.2 -31.1 -24.8 61 - E 43 57 23 31 965.8 - -
27/10:04am -19.2 -30.7 -23.9 66 - E 41 59 22 32 965.6 - -
27/10:00am -19.2 -31.1 -24.1 65 - E 43 59 23 32 965.7 - -
27/09:30am -17.8 -28.5 -23.3 62 - E 37 48 20 26 965.1 - -
27/09:00am -17.1 -26.9 -24.0 55 - ENE 32 65 17 35 964.9 - -
27/08:30am -17.0 -26.8 -23.7 56 - ENE 32 65 17 35 964.7 - -
27/08:00am -17.4 -29.4 -22.9 62 - E 44 69 24 37 964.2 - -
27/07:51am -17.1 -29.1 -22.3 64 - E 44 67 24 36 963.8 - -
27/07:30am -17.2 -29.6 -22.2 65 - E 46 61 25 33 963.9 - -
27/07:00am -17.3 -30.5 -22.1 66 - E 50 61 27 33 963.6 - -
27/06:30am -17.2 -30.0 -22.4 64 - E 48 57 26 31 963.3 - -
27/06:00am -17.1 -30.6 -21.9 66 - E 52 61 28 33 963.1 - -
27/05:30am -16.4 -29.2 -21.8 63 - E 48 61 26 33 962.7 - -
27/05:00am -16.5 -29.3 -21.5 65 - E 48 57 26 31 962.5 - -
27/04:30am -16.4 -28.8 -21.2 66 - E 46 56 25 30 962.4 - -
27/04:00am -16.2 -28.6 -20.9 67 - E 46 56 25 30 962.2 - -
27/03:30am -15.9 -28.2 -20.6 67 - ENE 46 54 25 29 962.0 - -
27/03:00am -15.8 -27.8 -20.8 65 - ENE 44 57 24 31 961.7 - -
27/02:30am -15.6 -27.9 -20.5 66 - E 46 56 25 30 961.4 - -
27/02:00am -15.9 -28.2 -20.6 67 - E 46 59 25 32 961.2 - -
27/01:30am -15.2 -27.1 -19.9 67 - ENE 44 54 24 29 961.0 - -
27/01:00am -15.2 -27.1 -19.9 67 - ENE 44 54 24 29 960.5 - -
27/12:30am -15.0 -27.3 -19.4 69 - ENE 46 56 25 30 960.1 - -
27/12:00am -14.9 -28.0 -19.5 68 - ENE 50 59 27 32 959.8 - -
 
Date/Time
EDT
Temp
°C
App
Temp
°C
Dew
Point
Rel
Hum
%
Delta-T
°C
Wind Press
QNH
hPa
Press
MSL
hPa
Rain
since 9 am
mm
Dir
 
Spd
km/h
Gust
km/h
Spd
kts
Gust
kts
26/11:30pm -15.1 -28.2 -19.5 69 - ENE 50 59 27 32 959.5 - -
26/10:00pm -14.4 -28.6 -18.8 69 - ENE 56 65 30 35 958.4 - -
26/09:30pm -13.9 -28.0 -17.7 73 - ENE 56 63 30 34 958.2 - -
26/09:00pm -13.8 -28.1 -17.7 72 - ENE 57 67 31 36 958.1 - -
26/08:30pm -13.4 -27.7 -17.7 70 - ENE 57 69 31 37 957.8 - -
26/08:00pm -13.3 -27.4 -17.4 71 - ENE 56 65 30 35 957.6 - -
26/07:30pm -13.2 -27.5 -17.3 71 - ENE 57 69 31 37 957.3 - -
26/07:00pm -13.0 -27.7 -17.1 71 - ENE 59 72 32 39 957.0 - -
26/06:30pm -12.8 -26.5 -16.6 73 - E 54 61 29 33 957.0 - -
26/06:00pm -12.7 -27.0 -16.3 74 - ENE 57 69 31 37 956.9 - -
26/05:30pm -12.8 -27.8 -16.1 76 - ENE 61 72 33 39 956.5 - -
26/05:00pm -12.4 -28.5 -15.9 75 - ENE 67 78 36 42 956.1 - -
26/04:30pm -11.9 -28.0 -15.1 77 - ENE 67 80 36 43 955.6 - -
26/04:00pm -11.8 -27.5 -14.7 79 - ENE 65 78 35 42 955.5 - -
26/03:30pm -11.8 -27.9 -14.7 79 - ENE 67 76 36 41 955.4 - -
26/03:00pm -11.7 -27.4 -14.6 79 - ENE 65 74 35 40 955.0 - -
26/02:30pm -12.1 -28.2 -14.7 81 - ENE 67 76 36 41 954.8 - -
26/02:00pm -12.1 -28.2 -15.1 78 - ENE 67 78 36 42 954.7 - -
26/01:00pm -12.4 -28.9 -15.3 79 - ENE 69 83 37 45 954.3 - -
26/12:30pm -12.4 -29.1 -15.1 80 - ENE 70 82 38 44 953.9 - -
26/12:00pm -12.3 -28.8 -14.7 82 - ENE 69 78 37 42 953.9 - -
26/11:30am -12.5 -29.2 -14.8 83 - ENE 70 82 38 44 953.9 - -
26/11:00am -12.2 -29.2 -14.8 81 - ENE 72 83 39 45 953.8 - -
26/10:30am -12.2 -29.2 -14.6 82 - ENE 72 80 39 43 953.4 - -
26/10:00am -12.1 -28.6 -14.8 80 - E 69 78 37 42 953.6 - -
26/09:30am -12.0 -28.1 -14.4 82 - E 67 76 36 41 953.7 - -
26/09:00am -12.0 -28.1 -14.3 83 - E 67 80 36 43 953.1 - -
26/08:30am -12.2 -28.9 -14.9 80 - E 70 83 38 45 953.0 - -
26/08:00am -11.8 -27.5 -14.4 81 - E 65 76 35 41 953.3 - -
26/07:30am -11.9 -27.6 -14.3 82 - E 65 76 35 41 953.5 - -
26/07:00am -12.0 -28.1 -14.6 81 - E 67 76 36 41 953.4 - -
26/06:30am -12.0 -28.1 -14.6 81 - E 67 78 36 42 953.4 - -
26/06:00am -11.8 -27.5 -14.4 81 - E 65 78 35 42 953.6 - -
26/05:30am -11.8 -27.9 -14.2 82 - E 67 74 36 40 953.4 - -
26/05:00am -11.9 -28.0 -14.5 81 - E 67 76 36 41 953.3 - -
26/04:30am -11.7 -27.4 -14.1 82 - E 65 76 35 41 953.5 - -
26/04:00am -11.8 -27.5 -14.4 81 - E 65 74 35 40 953.4 - -
26/03:30am -12.3 -27.6 -14.7 82 - E 63 72 34 39 953.4 - -

Other Formats:

Comma delimited format used in spreadsheet applications
http://www.bom.gov.au/fwo/IDT60803/IDT60803.89570.axf

JavaScript Object Notation format (JSON) in row-major order
http://www.bom.gov.au/fwo/IDT60803/IDT60803.89570.json